sensor_id;sensor_type;location;lat;lon;timestamp;P1;durP1;ratioP1;P2;durP2;ratioP2
64887;SDS011;51386;53.082;8.816;2023-06-24T00:02:15;7.50;;;6.27;;
64887;SDS011;51386;53.082;8.816;2023-06-24T00:04:42;7.60;;;6.77;;
64887;SDS011;51386;53.082;8.816;2023-06-24T00:07:09;8.73;;;6.90;;
64887;SDS011;51386;53.082;8.816;2023-06-24T00:09:36;7.40;;;6.70;;
64887;SDS011;51386;53.082;8.816;2023-06-24T00:12:04;7.10;;;6.27;;
64887;SDS011;51386;53.082;8.816;2023-06-24T00:14:33;8.10;;;7.30;;
64887;SDS011;51386;53.082;8.816;2023-06-24T00:17:03;8.70;;;7.87;;
64887;SDS011;51386;53.082;8.816;2023-06-24T00:19:31;7.40;;;6.70;;
64887;SDS011;51386;53.082;8.816;2023-06-24T00:21:58;6.83;;;6.23;;
64887;SDS011;51386;53.082;8.816;2023-06-24T00:24:25;8.77;;;6.93;;
64887;SDS011;51386;53.082;8.816;2023-06-24T00:26:52;8.60;;;7.80;;
64887;SDS011;51386;53.082;8.816;2023-06-24T00:29:19;8.90;;;7.23;;
64887;SDS011;51386;53.082;8.816;2023-06-24T00:31:48;9.63;;;8.27;;
64887;SDS011;51386;53.082;8.816;2023-06-24T00:34:15;7.83;;;7.03;;
64887;SDS011;51386;53.082;8.816;2023-06-24T00:36:42;8.23;;;7.00;;
64887;SDS011;51386;53.082;8.816;2023-06-24T00:39:10;9.13;;;8.23;;
64887;SDS011;51386;53.082;8.816;2023-06-24T00:41:37;8.07;;;7.03;;
64887;SDS011;51386;53.082;8.816;2023-06-24T00:44:04;8.30;;;7.40;;
64887;SDS011;51386;53.082;8.816;2023-06-24T00:46:31;8.07;;;7.07;;
64887;SDS011;51386;53.082;8.816;2023-06-24T00:49:00;7.00;;;6.37;;
64887;SDS011;51386;53.082;8.816;2023-06-24T00:51:29;7.67;;;6.77;;
64887;SDS011;51386;53.082;8.816;2023-06-24T00:53:57;8.77;;;7.07;;
64887;SDS011;51386;53.082;8.816;2023-06-24T00:56:29;8.73;;;7.57;;
64887;SDS011;51386;53.082;8.816;2023-06-24T00:59:00;9.07;;;8.17;;
64887;SDS011;51386;53.082;8.816;2023-06-24T01:01:29;10.20;;;7.27;;
64887;SDS011;51386;53.082;8.816;2023-06-24T01:04:01;8.17;;;6.70;;
64887;SDS011;51386;53.082;8.816;2023-06-24T01:06:30;11.37;;;7.90;;
64887;SDS011;51386;53.082;8.816;2023-06-24T01:08:58;8.30;;;7.20;;
64887;SDS011;51386;53.082;8.816;2023-06-24T01:11:28;10.43;;;7.77;;
64887;SDS011;51386;53.082;8.816;2023-06-24T01:13:56;10.93;;;7.67;;
64887;SDS011;51386;53.082;8.816;2023-06-24T01:16:25;8.60;;;6.83;;
64887;SDS011;51386;53.082;8.816;2023-06-24T01:19:04;8.77;;;7.40;;
64887;SDS011;51386;53.082;8.816;2023-06-24T01:22:14;11.10;;;8.27;;
64887;SDS011;51386;53.082;8.816;2023-06-24T01:25:24;11.23;;;9.27;;
64887;SDS011;51386;53.082;8.816;2023-06-24T01:28:20;9.43;;;8.37;;
64887;SDS011;51386;53.082;8.816;2023-06-24T01:31:20;10.57;;;8.37;;
64887;SDS011;51386;53.082;8.816;2023-06-24T01:34:01;8.97;;;7.30;;
64887;SDS011;51386;53.082;8.816;2023-06-24T01:36:42;9.07;;;8.17;;
64887;SDS011;51386;53.082;8.816;2023-06-24T01:39:17;9.73;;;8.83;;
64887;SDS011;51386;53.082;8.816;2023-06-24T01:41:51;10.57;;;8.07;;
64887;SDS011;51386;53.082;8.816;2023-06-24T01:44:27;9.47;;;8.37;;
64887;SDS011;51386;53.082;8.816;2023-06-24T01:46:57;10.77;;;8.77;;
64887;SDS011;51386;53.082;8.816;2023-06-24T01:49:27;10.40;;;9.07;;
64887;SDS011;51386;53.082;8.816;2023-06-24T01:52:00;9.63;;;8.57;;
64887;SDS011;51386;53.082;8.816;2023-06-24T01:54:30;9.73;;;8.73;;
64887;SDS011;51386;53.082;8.816;2023-06-24T01:57:00;9.33;;;8.40;;
64887;SDS011;51386;53.082;8.816;2023-06-24T01:59:32;9.80;;;8.77;;
64887;SDS011;51386;53.082;8.816;2023-06-24T02:02:02;10.03;;;8.93;;
64887;SDS011;51386;53.082;8.816;2023-06-24T02:04:32;9.70;;;8.70;;
64887;SDS011;51386;53.082;8.816;2023-06-24T02:07:02;8.67;;;7.77;;
64887;SDS011;51386;53.082;8.816;2023-06-24T02:09:32;9.33;;;8.33;;
64887;SDS011;51386;53.082;8.816;2023-06-24T02:12:01;8.53;;;7.73;;
64887;SDS011;51386;53.082;8.816;2023-06-24T02:14:30;9.20;;;8.40;;
64887;SDS011;51386;53.082;8.816;2023-06-24T02:17:00;9.40;;;8.37;;
64887;SDS011;51386;53.082;8.816;2023-06-24T02:19:31;8.97;;;8.07;;
64887;SDS011;51386;53.082;8.816;2023-06-24T02:21:59;10.50;;;9.37;;
64887;SDS011;51386;53.082;8.816;2023-06-24T02:24:28;11.00;;;9.37;;
64887;SDS011;51386;53.082;8.816;2023-06-24T02:26:56;9.77;;;8.37;;
64887;SDS011;51386;53.082;8.816;2023-06-24T02:29:25;11.83;;;9.27;;
64887;SDS011;51386;53.082;8.816;2023-06-24T02:31:54;10.00;;;9.00;;
64887;SDS011;51386;53.082;8.816;2023-06-24T02:34:23;9.47;;;8.47;;
64887;SDS011;51386;53.082;8.816;2023-06-24T02:36:50;9.83;;;8.83;;
64887;SDS011;51386;53.082;8.816;2023-06-24T02:39:17;10.03;;;9.00;;
64887;SDS011;51386;53.082;8.816;2023-06-24T02:41:44;10.93;;;8.50;;
64887;SDS011;51386;53.082;8.816;2023-06-24T02:44:13;9.77;;;8.77;;
64887;SDS011;51386;53.082;8.816;2023-06-24T02:46:40;10.53;;;9.50;;
64887;SDS011;51386;53.082;8.816;2023-06-24T02:49:12;10.17;;;8.83;;
64887;SDS011;51386;53.082;8.816;2023-06-24T02:51:45;11.43;;;10.17;;
64887;SDS011;51386;53.082;8.816;2023-06-24T02:54:12;12.23;;;9.67;;
64887;SDS011;51386;53.082;8.816;2023-06-24T02:56:41;9.23;;;8.43;;
64887;SDS011;51386;53.082;8.816;2023-06-24T02:59:10;11.43;;;10.33;;
64887;SDS011;51386;53.082;8.816;2023-06-24T03:01:37;11.00;;;9.90;;
64887;SDS011;51386;53.082;8.816;2023-06-24T03:04:06;9.50;;;8.70;;
64887;SDS011;51386;53.082;8.816;2023-06-24T03:06:33;10.30;;;9.40;;
64887;SDS011;51386;53.082;8.816;2023-06-24T03:09:04;11.87;;;10.63;;
64887;SDS011;51386;53.082;8.816;2023-06-24T03:11:31;8.67;;;7.80;;
64887;SDS011;51386;53.082;8.816;2023-06-24T03:14:06;9.57;;;8.57;;
64887;SDS011;51386;53.082;8.816;2023-06-24T03:16:33;10.23;;;9.23;;
64887;SDS011;51386;53.082;8.816;2023-06-24T03:19:00;10.10;;;9.10;;
64887;SDS011;51386;53.082;8.816;2023-06-24T03:21:27;10.20;;;8.70;;
64887;SDS011;51386;53.082;8.816;2023-06-24T03:23:55;11.07;;;9.97;;
64887;SDS011;51386;53.082;8.816;2023-06-24T03:26:24;11.33;;;9.73;;
64887;SDS011;51386;53.082;8.816;2023-06-24T03:28:51;10.30;;;9.30;;
64887;SDS011;51386;53.082;8.816;2023-06-24T03:31:18;11.40;;;10.20;;
64887;SDS011;51386;53.082;8.816;2023-06-24T03:33:49;10.13;;;9.17;;
64887;SDS011;51386;53.082;8.816;2023-06-24T03:36:16;11.43;;;10.37;;
64887;SDS011;51386;53.082;8.816;2023-06-24T03:38:43;11.73;;;10.50;;
64887;SDS011;51386;53.082;8.816;2023-06-24T03:41:10;11.57;;;9.37;;
64887;SDS011;51386;53.082;8.816;2023-06-24T03:43:38;9.83;;;8.87;;
64887;SDS011;51386;53.082;8.816;2023-06-24T03:46:05;13.17;;;10.37;;
64887;SDS011;51386;53.082;8.816;2023-06-24T03:48:32;9.93;;;8.93;;
64887;SDS011;51386;53.082;8.816;2023-06-24T03:50:59;9.37;;;8.47;;
64887;SDS011;51386;53.082;8.816;2023-06-24T03:53:26;10.60;;;9.50;;
64887;SDS011;51386;53.082;8.816;2023-06-24T03:55:53;11.13;;;9.93;;
64887;SDS011;51386;53.082;8.816;2023-06-24T03:58:20;13.20;;;9.53;;
64887;SDS011;51386;53.082;8.816;2023-06-24T04:00:49;10.17;;;9.13;;
64887;SDS011;51386;53.082;8.816;2023-06-24T04:03:16;9.80;;;8.03;;
64887;SDS011;51386;53.082;8.816;2023-06-24T04:05:45;12.63;;;10.57;;
64887;SDS011;51386;53.082;8.816;2023-06-24T04:08:12;11.93;;;10.73;;
64887;SDS011;51386;53.082;8.816;2023-06-24T04:10:40;11.97;;;10.77;;
64887;SDS011;51386;53.082;8.816;2023-06-24T04:13:09;11.37;;;10.17;;
64887;SDS011;51386;53.082;8.816;2023-06-24T04:15:36;11.50;;;10.50;;
64887;SDS011;51386;53.082;8.816;2023-06-24T04:18:05;10.53;;;9.57;;
64887;SDS011;51386;53.082;8.816;2023-06-24T04:20:31;10.50;;;8.90;;
64887;SDS011;51386;53.082;8.816;2023-06-24T04:23:03;10.57;;;9.30;;
64887;SDS011;51386;53.082;8.816;2023-06-24T04:25:32;11.00;;;9.63;;
64887;SDS011;51386;53.082;8.816;2023-06-24T04:27:59;10.50;;;9.50;;
64887;SDS011;51386;53.082;8.816;2023-06-24T04:30:26;10.13;;;9.17;;
64887;SDS011;51386;53.082;8.816;2023-06-24T04:32:53;12.03;;;10.83;;
64887;SDS011;51386;53.082;8.816;2023-06-24T04:35:22;10.73;;;9.73;;
64887;SDS011;51386;53.082;8.816;2023-06-24T04:37:49;11.73;;;10.37;;
64887;SDS011;51386;53.082;8.816;2023-06-24T04:40:16;10.37;;;9.33;;
64887;SDS011;51386;53.082;8.816;2023-06-24T04:42:45;10.37;;;9.30;;
64887;SDS011;51386;53.082;8.816;2023-06-24T04:45:12;10.93;;;9.23;;
64887;SDS011;51386;53.082;8.816;2023-06-24T04:47:39;11.70;;;10.50;;
64887;SDS011;51386;53.082;8.816;2023-06-24T04:50:07;11.70;;;10.57;;
64887;SDS011;51386;53.082;8.816;2023-06-24T04:52:39;11.43;;;10.23;;
64887;SDS011;51386;53.082;8.816;2023-06-24T04:55:06;12.10;;;10.17;;
64887;SDS011;51386;53.082;8.816;2023-06-24T04:57:34;10.07;;;9.17;;
64887;SDS011;51386;53.082;8.816;2023-06-24T05:00:02;10.53;;;9.43;;
64887;SDS011;51386;53.082;8.816;2023-06-24T05:02:30;11.47;;;9.90;;
64887;SDS011;51386;53.082;8.816;2023-06-24T05:04:58;11.67;;;9.83;;
64887;SDS011;51386;53.082;8.816;2023-06-24T05:07:25;9.73;;;8.70;;
64887;SDS011;51386;53.082;8.816;2023-06-24T05:09:53;13.10;;;11.80;;
64887;SDS011;51386;53.082;8.816;2023-06-24T05:12:20;11.70;;;10.60;;
64887;SDS011;51386;53.082;8.816;2023-06-24T05:14:49;14.43;;;11.53;;
64887;SDS011;51386;53.082;8.816;2023-06-24T05:17:17;12.50;;;11.30;;
64887;SDS011;51386;53.082;8.816;2023-06-24T05:19:44;12.17;;;9.90;;
64887;SDS011;51386;53.082;8.816;2023-06-24T05:22:11;13.43;;;11.90;;
64887;SDS011;51386;53.082;8.816;2023-06-24T05:24:38;12.47;;;10.73;;
64887;SDS011;51386;53.082;8.816;2023-06-24T05:27:08;12.57;;;10.90;;
64887;SDS011;51386;53.082;8.816;2023-06-24T05:29:35;12.13;;;10.47;;
64887;SDS011;51386;53.082;8.816;2023-06-24T05:32:03;11.77;;;9.43;;
64887;SDS011;51386;53.082;8.816;2023-06-24T05:34:31;12.13;;;10.90;;
64887;SDS011;51386;53.082;8.816;2023-06-24T05:36:58;11.63;;;10.40;;
64887;SDS011;51386;53.082;8.816;2023-06-24T05:39:25;10.93;;;9.93;;
64887;SDS011;51386;53.082;8.816;2023-06-24T05:41:52;12.20;;;11.10;;
64887;SDS011;51386;53.082;8.816;2023-06-24T05:44:21;10.97;;;9.67;;
64887;SDS011;51386;53.082;8.816;2023-06-24T05:46:49;9.93;;;8.57;;
64887;SDS011;51386;53.082;8.816;2023-06-24T05:49:16;9.37;;;8.57;;
64887;SDS011;51386;53.082;8.816;2023-06-24T05:51:43;11.70;;;10.50;;
64887;SDS011;51386;53.082;8.816;2023-06-24T05:54:10;11.43;;;10.23;;
64887;SDS011;51386;53.082;8.816;2023-06-24T05:56:37;13.90;;;11.50;;
64887;SDS011;51386;53.082;8.816;2023-06-24T05:59:05;14.33;;;11.87;;
64887;SDS011;51386;53.082;8.816;2023-06-24T06:01:34;13.30;;;11.93;;
64887;SDS011;51386;53.082;8.816;2023-06-24T06:04:01;12.87;;;10.97;;
64887;SDS011;51386;53.082;8.816;2023-06-24T06:06:28;12.47;;;10.63;;
64887;SDS011;51386;53.082;8.816;2023-06-24T06:08:55;11.27;;;9.97;;
64887;SDS011;51386;53.082;8.816;2023-06-24T06:11:22;10.70;;;9.43;;
64887;SDS011;51386;53.082;8.816;2023-06-24T06:13:49;10.30;;;9.20;;
64887;SDS011;51386;53.082;8.816;2023-06-24T06:16:18;11.07;;;8.53;;
64887;SDS011;51386;53.082;8.816;2023-06-24T06:18:46;11.03;;;9.40;;
64887;SDS011;51386;53.082;8.816;2023-06-24T06:21:13;9.97;;;8.90;;
64887;SDS011;51386;53.082;8.816;2023-06-24T06:23:40;12.53;;;9.10;;
64887;SDS011;51386;53.082;8.816;2023-06-24T06:26:07;8.33;;;7.27;;
64887;SDS011;51386;53.082;8.816;2023-06-24T06:28:35;7.70;;;7.00;;
64887;SDS011;51386;53.082;8.816;2023-06-24T06:31:02;6.87;;;6.23;;
64887;SDS011;51386;53.082;8.816;2023-06-24T06:33:29;6.97;;;6.20;;
64887;SDS011;51386;53.082;8.816;2023-06-24T06:35:57;8.07;;;6.50;;
64887;SDS011;51386;53.082;8.816;2023-06-24T06:38:25;8.40;;;6.90;;
64887;SDS011;51386;53.082;8.816;2023-06-24T06:40:52;8.13;;;6.87;;
64887;SDS011;51386;53.082;8.816;2023-06-24T06:43:19;8.17;;;7.37;;
64887;SDS011;51386;53.082;8.816;2023-06-24T06:45:47;8.87;;;7.97;;
64887;SDS011;51386;53.082;8.816;2023-06-24T06:48:14;12.00;;;7.90;;
64887;SDS011;51386;53.082;8.816;2023-06-24T06:50:41;7.90;;;7.20;;
64887;SDS011;51386;53.082;8.816;2023-06-24T06:53:10;8.57;;;7.47;;
64887;SDS011;51386;53.082;8.816;2023-06-24T06:55:37;8.37;;;7.27;;
64887;SDS011;51386;53.082;8.816;2023-06-24T06:58:05;8.87;;;6.53;;
64887;SDS011;51386;53.082;8.816;2023-06-24T07:00:32;7.23;;;6.00;;
64887;SDS011;51386;53.082;8.816;2023-06-24T07:02:59;9.23;;;6.33;;
64887;SDS011;51386;53.082;8.816;2023-06-24T07:05:26;6.43;;;5.83;;
64887;SDS011;51386;53.082;8.816;2023-06-24T07:07:53;6.00;;;4.80;;
64887;SDS011;51386;53.082;8.816;2023-06-24T07:10:21;5.97;;;5.40;;
64887;SDS011;51386;53.082;8.816;2023-06-24T07:12:48;5.93;;;5.43;;
64887;SDS011;51386;53.082;8.816;2023-06-24T07:15:15;6.60;;;5.30;;
64887;SDS011;51386;53.082;8.816;2023-06-24T07:17:45;7.37;;;6.67;;
64887;SDS011;51386;53.082;8.816;2023-06-24T07:20:12;7.57;;;6.17;;
64887;SDS011;51386;53.082;8.816;2023-06-24T07:22:39;6.67;;;6.07;;
64887;SDS011;51386;53.082;8.816;2023-06-24T07:25:06;6.77;;;6.10;;
64887;SDS011;51386;53.082;8.816;2023-06-24T07:27:35;6.53;;;5.93;;
64887;SDS011;51386;53.082;8.816;2023-06-24T07:30:02;7.87;;;5.80;;
64887;SDS011;51386;53.082;8.816;2023-06-24T07:32:30;7.33;;;6.50;;
64887;SDS011;51386;53.082;8.816;2023-06-24T07:34:57;6.17;;;5.67;;
64887;SDS011;51386;53.082;8.816;2023-06-24T07:37:24;6.60;;;5.73;;
64887;SDS011;51386;53.082;8.816;2023-06-24T07:39:51;7.60;;;6.80;;
64887;SDS011;51386;53.082;8.816;2023-06-24T07:42:18;7.53;;;6.30;;
64887;SDS011;51386;53.082;8.816;2023-06-24T07:44:47;8.27;;;6.57;;
64887;SDS011;51386;53.082;8.816;2023-06-24T07:47:16;8.10;;;6.00;;
64887;SDS011;51386;53.082;8.816;2023-06-24T07:49:44;6.43;;;5.73;;
64887;SDS011;51386;53.082;8.816;2023-06-24T07:52:11;5.87;;;5.27;;
64887;SDS011;51386;53.082;8.816;2023-06-24T07:54:39;6.53;;;5.40;;
64887;SDS011;51386;53.082;8.816;2023-06-24T07:57:06;6.40;;;5.80;;
64887;SDS011;51386;53.082;8.816;2023-06-24T07:59:33;7.83;;;6.57;;
64887;SDS011;51386;53.082;8.816;2023-06-24T08:02:02;6.90;;;6.20;;
64887;SDS011;51386;53.082;8.816;2023-06-24T08:04:29;5.97;;;5.40;;
64887;SDS011;51386;53.082;8.816;2023-06-24T08:06:56;5.80;;;5.07;;
64887;SDS011;51386;53.082;8.816;2023-06-24T08:09:23;7.00;;;6.20;;
64887;SDS011;51386;53.082;8.816;2023-06-24T08:11:50;6.70;;;6.10;;
64887;SDS011;51386;53.082;8.816;2023-06-24T08:14:17;6.87;;;5.87;;
64887;SDS011;51386;53.082;8.816;2023-06-24T08:16:44;5.63;;;5.03;;
64887;SDS011;51386;53.082;8.816;2023-06-24T08:19:13;5.83;;;5.27;;
64887;SDS011;51386;53.082;8.816;2023-06-24T08:21:40;8.07;;;5.40;;
64887;SDS011;51386;53.082;8.816;2023-06-24T08:24:07;7.03;;;6.33;;
64887;SDS011;51386;53.082;8.816;2023-06-24T08:26:34;7.60;;;6.10;;
64887;SDS011;51386;53.082;8.816;2023-06-24T08:29:01;6.70;;;4.70;;
64887;SDS011;51386;53.082;8.816;2023-06-24T08:31:30;5.90;;;5.40;;
64887;SDS011;51386;53.082;8.816;2023-06-24T08:33:58;4.93;;;4.43;;
64887;SDS011;51386;53.082;8.816;2023-06-24T08:36:29;4.97;;;4.50;;
64887;SDS011;51386;53.082;8.816;2023-06-24T08:38:56;5.37;;;4.87;;
64887;SDS011;51386;53.082;8.816;2023-06-24T08:41:24;4.70;;;4.30;;
64887;SDS011;51386;53.082;8.816;2023-06-24T08:43:51;5.77;;;5.27;;
64887;SDS011;51386;53.082;8.816;2023-06-24T08:46:20;5.07;;;4.57;;
64887;SDS011;51386;53.082;8.816;2023-06-24T08:48:48;5.20;;;4.70;;
64887;SDS011;51386;53.082;8.816;2023-06-24T08:51:20;4.60;;;4.20;;
64887;SDS011;51386;53.082;8.816;2023-06-24T08:53:55;5.20;;;4.70;;
64887;SDS011;51386;53.082;8.816;2023-06-24T08:56:24;5.07;;;4.57;;
64887;SDS011;51386;53.082;8.816;2023-06-24T08:58:52;4.03;;;3.73;;
64887;SDS011;51386;53.082;8.816;2023-06-24T09:01:19;4.10;;;3.80;;
64887;SDS011;51386;53.082;8.816;2023-06-24T09:03:49;4.63;;;4.33;;
64887;SDS011;51386;53.082;8.816;2023-06-24T09:06:17;4.43;;;4.03;;
64887;SDS011;51386;53.082;8.816;2023-06-24T09:08:51;4.13;;;3.73;;
64887;SDS011;51386;53.082;8.816;2023-06-24T09:11:24;5.63;;;4.03;;
64887;SDS011;51386;53.082;8.816;2023-06-24T09:13:56;4.47;;;4.07;;
64887;SDS011;51386;53.082;8.816;2023-06-24T09:16:24;4.72;;;4.22;;
64887;SDS011;51386;53.082;8.816;2023-06-24T09:18:53;5.70;;;4.00;;
64887;SDS011;51386;53.082;8.816;2023-06-24T09:21:23;6.38;;;4.28;;
64887;SDS011;51386;53.082;8.816;2023-06-24T09:23:56;4.13;;;3.83;;
64887;SDS011;51386;53.082;8.816;2023-06-24T09:26:24;3.70;;;3.40;;
64887;SDS011;51386;53.082;8.816;2023-06-24T09:28:53;3.85;;;3.53;;
64887;SDS011;51386;53.082;8.816;2023-06-24T09:31:20;4.38;;;3.97;;
64887;SDS011;51386;53.082;8.816;2023-06-24T09:33:50;3.50;;;3.20;;
64887;SDS011;51386;53.082;8.816;2023-06-24T09:36:17;3.70;;;3.40;;
64887;SDS011;51386;53.082;8.816;2023-06-24T09:38:44;4.22;;;3.88;;
64887;SDS011;51386;53.082;8.816;2023-06-24T09:41:13;3.83;;;3.53;;
64887;SDS011;51386;53.082;8.816;2023-06-24T09:43:41;3.95;;;3.55;;
64887;SDS011;51386;53.082;8.816;2023-06-24T09:46:13;4.07;;;3.88;;
64887;SDS011;51386;53.082;8.816;2023-06-24T09:48:42;4.80;;;3.72;;
64887;SDS011;51386;53.082;8.816;2023-06-24T09:51:09;4.20;;;3.83;;
64887;SDS011;51386;53.082;8.816;2023-06-24T09:53:39;4.28;;;3.88;;
64887;SDS011;51386;53.082;8.816;2023-06-24T09:56:09;3.85;;;3.58;;
64887;SDS011;51386;53.082;8.816;2023-06-24T09:58:41;4.68;;;4.30;;
64887;SDS011;51386;53.082;8.816;2023-06-24T10:01:11;4.35;;;4.03;;
64887;SDS011;51386;53.082;8.816;2023-06-24T10:03:39;4.30;;;3.90;;
64887;SDS011;51386;53.082;8.816;2023-06-24T10:06:06;4.32;;;4.03;;
64887;SDS011;51386;53.082;8.816;2023-06-24T10:08:34;4.35;;;4.00;;
64887;SDS011;51386;53.082;8.816;2023-06-24T10:11:03;5.03;;;4.55;;
64887;SDS011;51386;53.082;8.816;2023-06-24T10:13:30;4.13;;;3.83;;
64887;SDS011;51386;53.082;8.816;2023-06-24T10:15:58;4.60;;;4.20;;
64887;SDS011;51386;53.082;8.816;2023-06-24T10:18:32;5.38;;;4.38;;
64887;SDS011;51386;53.082;8.816;2023-06-24T10:21:01;4.43;;;4.03;;
64887;SDS011;51386;53.082;8.816;2023-06-24T10:23:30;4.47;;;4.07;;
64887;SDS011;51386;53.082;8.816;2023-06-24T10:25:59;4.07;;;3.70;;
64887;SDS011;51386;53.082;8.816;2023-06-24T10:28:26;3.92;;;3.63;;
64887;SDS011;51386;53.082;8.816;2023-06-24T10:31:14;4.10;;;3.67;;
64887;SDS011;51386;53.082;8.816;2023-06-24T10:33:41;5.10;;;4.63;;
64887;SDS011;51386;53.082;8.816;2023-06-24T10:36:31;5.05;;;4.75;;
64887;SDS011;51386;53.082;8.816;2023-06-24T10:38:58;7.45;;;4.70;;
64887;SDS011;51386;53.082;8.816;2023-06-24T10:41:25;5.50;;;4.93;;
64887;SDS011;51386;53.082;8.816;2023-06-24T10:43:52;5.10;;;4.65;;
64887;SDS011;51386;53.082;8.816;2023-06-24T10:46:25;5.70;;;4.93;;
64887;SDS011;51386;53.082;8.816;2023-06-24T10:48:53;5.45;;;4.95;;
64887;SDS011;51386;53.082;8.816;2023-06-24T10:51:21;6.18;;;5.57;;
64887;SDS011;51386;53.082;8.816;2023-06-24T10:53:49;5.43;;;4.93;;
64887;SDS011;51386;53.082;8.816;2023-06-24T10:56:16;5.45;;;4.95;;
64887;SDS011;51386;53.082;8.816;2023-06-24T10:58:54;8.45;;;7.75;;
64887;SDS011;51386;53.082;8.816;2023-06-24T11:01:22;7.47;;;6.88;;
64887;SDS011;51386;53.082;8.816;2023-06-24T11:03:50;5.80;;;5.30;;
64887;SDS011;51386;53.082;8.816;2023-06-24T11:06:17;6.90;;;6.20;;
64887;SDS011;51386;53.082;8.816;2023-06-24T11:08:44;6.32;;;5.82;;
64887;SDS011;51386;53.082;8.816;2023-06-24T11:11:17;6.40;;;5.90;;
64887;SDS011;51386;53.082;8.816;2023-06-24T11:13:47;6.17;;;5.53;;
64887;SDS011;51386;53.082;8.816;2023-06-24T11:16:19;7.20;;;4.80;;
64887;SDS011;51386;53.082;8.816;2023-06-24T11:18:48;8.33;;;7.53;;
64887;SDS011;51386;53.082;8.816;2023-06-24T11:21:16;5.53;;;5.03;;
64887;SDS011;51386;53.082;8.816;2023-06-24T11:23:43;6.20;;;5.60;;
64887;SDS011;51386;53.082;8.816;2023-06-24T11:26:10;4.87;;;4.47;;
64887;SDS011;51386;53.082;8.816;2023-06-24T11:28:37;5.90;;;5.10;;
64887;SDS011;51386;53.082;8.816;2023-06-24T11:31:07;6.70;;;5.20;;
64887;SDS011;51386;53.082;8.816;2023-06-24T11:33:36;6.73;;;6.00;;
64887;SDS011;51386;53.082;8.816;2023-06-24T11:36:08;5.57;;;5.07;;
64887;SDS011;51386;53.082;8.816;2023-06-24T11:38:37;11.00;;;9.43;;
64887;SDS011;51386;53.082;8.816;2023-06-24T11:41:04;5.97;;;5.40;;
64887;SDS011;51386;53.082;8.816;2023-06-24T11:43:31;4.63;;;4.33;;
64887;SDS011;51386;53.082;8.816;2023-06-24T11:45:59;5.17;;;4.67;;
64887;SDS011;51386;53.082;8.816;2023-06-24T11:48:27;4.33;;;3.93;;
64887;SDS011;51386;53.082;8.816;2023-06-24T11:50:55;4.53;;;4.20;;
64887;SDS011;51386;53.082;8.816;2023-06-24T11:53:24;4.77;;;4.37;;
64887;SDS011;51386;53.082;8.816;2023-06-24T11:55:58;4.93;;;4.53;;
64887;SDS011;51386;53.082;8.816;2023-06-24T11:58:25;5.00;;;4.60;;
64887;SDS011;51386;53.082;8.816;2023-06-24T12:00:52;4.95;;;4.53;;
64887;SDS011;51386;53.082;8.816;2023-06-24T12:03:23;5.03;;;4.60;;
64887;SDS011;51386;53.082;8.816;2023-06-24T12:05:51;5.57;;;5.07;;
64887;SDS011;51386;53.082;8.816;2023-06-24T12:08:18;4.43;;;4.13;;
64887;SDS011;51386;53.082;8.816;2023-06-24T12:10:45;4.37;;;3.97;;
64887;SDS011;51386;53.082;8.816;2023-06-24T12:13:13;5.17;;;4.77;;
64887;SDS011;51386;53.082;8.816;2023-06-24T12:15:41;5.33;;;4.90;;
64887;SDS011;51386;53.082;8.816;2023-06-24T12:18:09;5.80;;;5.30;;
64887;SDS011;51386;53.082;8.816;2023-06-24T12:20:38;6.40;;;5.03;;
64887;SDS011;51386;53.082;8.816;2023-06-24T12:23:07;4.67;;;4.27;;
64887;SDS011;51386;53.082;8.816;2023-06-24T12:25:34;8.37;;;4.63;;
64887;SDS011;51386;53.082;8.816;2023-06-24T12:28:01;5.43;;;5.03;;
64887;SDS011;51386;53.082;8.816;2023-06-24T12:30:29;4.33;;;4.03;;
64887;SDS011;51386;53.082;8.816;2023-06-24T12:32:56;4.63;;;4.10;;
64887;SDS011;51386;53.082;8.816;2023-06-24T12:35:23;5.40;;;4.90;;
64887;SDS011;51386;53.082;8.816;2023-06-24T12:37:54;5.87;;;5.20;;
64887;SDS011;51386;53.082;8.816;2023-06-24T12:40:21;4.87;;;4.13;;
64887;SDS011;51386;53.082;8.816;2023-06-24T12:42:48;7.47;;;5.83;;
64887;SDS011;51386;53.082;8.816;2023-06-24T12:45:15;6.20;;;5.57;;
64887;SDS011;51386;53.082;8.816;2023-06-24T12:47:44;8.07;;;7.27;;
64887;SDS011;51386;53.082;8.816;2023-06-24T12:50:11;7.03;;;6.43;;
64887;SDS011;51386;53.082;8.816;2023-06-24T12:52:38;5.03;;;4.53;;
64887;SDS011;51386;53.082;8.816;2023-06-24T12:55:06;5.07;;;4.57;;
64887;SDS011;51386;53.082;8.816;2023-06-24T12:57:34;4.60;;;4.20;;
64887;SDS011;51386;53.082;8.816;2023-06-24T13:00:02;5.50;;;5.00;;
64887;SDS011;51386;53.082;8.816;2023-06-24T13:02:31;5.30;;;4.90;;
64887;SDS011;51386;53.082;8.816;2023-06-24T13:05:00;5.07;;;4.53;;
64887;SDS011;51386;53.082;8.816;2023-06-24T13:07:27;4.67;;;4.27;;
64887;SDS011;51386;53.082;8.816;2023-06-24T13:09:55;5.00;;;4.50;;
64887;SDS011;51386;53.082;8.816;2023-06-24T13:12:22;5.83;;;5.33;;
64887;SDS011;51386;53.082;8.816;2023-06-24T13:14:49;5.73;;;5.23;;
64887;SDS011;51386;53.082;8.816;2023-06-24T13:17:16;5.23;;;4.83;;
64887;SDS011;51386;53.082;8.816;2023-06-24T13:19:42;4.87;;;4.30;;
64887;SDS011;51386;53.082;8.816;2023-06-24T13:22:11;4.60;;;4.20;;
64887;SDS011;51386;53.082;8.816;2023-06-24T13:24:38;4.93;;;4.53;;
64887;SDS011;51386;53.082;8.816;2023-06-24T13:27:05;6.80;;;5.37;;
64887;SDS011;51386;53.082;8.816;2023-06-24T13:29:33;4.72;;;4.30;;
64887;SDS011;51386;53.082;8.816;2023-06-24T13:32:00;4.87;;;4.47;;
64887;SDS011;51386;53.082;8.816;2023-06-24T13:34:28;5.70;;;5.10;;
64887;SDS011;51386;53.082;8.816;2023-06-24T13:36:55;4.93;;;4.53;;
64887;SDS011;51386;53.082;8.816;2023-06-24T13:39:23;5.18;;;4.55;;
64887;SDS011;51386;53.082;8.816;2023-06-24T13:41:50;4.90;;;4.40;;
64887;SDS011;51386;53.082;8.816;2023-06-24T13:44:19;5.07;;;4.68;;
64887;SDS011;51386;53.082;8.816;2023-06-24T13:46:46;6.13;;;5.03;;
64887;SDS011;51386;53.082;8.816;2023-06-24T13:49:13;5.57;;;5.17;;
64887;SDS011;51386;53.082;8.816;2023-06-24T13:51:40;5.53;;;5.13;;
64887;SDS011;51386;53.082;8.816;2023-06-24T13:54:07;5.07;;;4.67;;
64887;SDS011;51386;53.082;8.816;2023-06-24T13:56:36;5.28;;;4.88;;
64887;SDS011;51386;53.082;8.816;2023-06-24T13:59:03;5.77;;;5.17;;
64887;SDS011;51386;53.082;8.816;2023-06-24T14:01:30;5.90;;;5.30;;
64887;SDS011;51386;53.082;8.816;2023-06-24T14:03:58;5.63;;;5.13;;
64887;SDS011;51386;53.082;8.816;2023-06-24T14:06:25;5.93;;;4.53;;
64887;SDS011;51386;53.082;8.816;2023-06-24T14:08:52;4.67;;;4.27;;
64887;SDS011;51386;53.082;8.816;2023-06-24T14:11:19;5.13;;;4.73;;
64887;SDS011;51386;53.082;8.816;2023-06-24T14:13:48;5.17;;;4.70;;
64887;SDS011;51386;53.082;8.816;2023-06-24T14:16:16;6.20;;;5.63;;
64887;SDS011;51386;53.082;8.816;2023-06-24T14:18:43;5.35;;;4.55;;
64887;SDS011;51386;53.082;8.816;2023-06-24T14:21:10;5.60;;;5.20;;
64887;SDS011;51386;53.082;8.816;2023-06-24T14:23:37;6.13;;;5.50;;
64887;SDS011;51386;53.082;8.816;2023-06-24T14:26:06;5.55;;;5.05;;
64887;SDS011;51386;53.082;8.816;2023-06-24T14:28:33;5.25;;;4.78;;
64887;SDS011;51386;53.082;8.816;2023-06-24T14:31:01;7.10;;;5.40;;
64887;SDS011;51386;53.082;8.816;2023-06-24T14:33:28;5.72;;;4.93;;
64887;SDS011;51386;53.082;8.816;2023-06-24T14:35:55;4.70;;;4.30;;
64887;SDS011;51386;53.082;8.816;2023-06-24T14:38:22;6.72;;;4.80;;
64887;SDS011;51386;53.082;8.816;2023-06-24T14:40:52;5.60;;;4.75;;
64887;SDS011;51386;53.082;8.816;2023-06-24T14:43:19;6.22;;;5.72;;
64887;SDS011;51386;53.082;8.816;2023-06-24T14:45:46;5.47;;;5.07;;
64887;SDS011;51386;53.082;8.816;2023-06-24T14:48:14;7.40;;;6.80;;
64887;SDS011;51386;53.082;8.816;2023-06-24T14:50:41;5.47;;;4.87;;
64887;SDS011;51386;53.082;8.816;2023-06-24T14:53:08;4.70;;;4.35;;